Погода Курендина неделю

Аура, Мальта

24 - 30 июля
  • 24июля
    Сегодня
    +24°
    +33°
    Ясно и безоблачно
    ВремяПогодаТемператураВлажностьДавлениеВетер, м/сВероятность осадков
    02:00Ясно и безоблачно+26°C88 %750 мм3.1 м/с2 %
    05:00Ясно и безоблачно+25°C92 %749 мм3.4 м/с2 %
    08:00Ясно и безоблачно+28°C79 %750 мм4.7 м/с2 %
    11:00Ясно и безоблачно+32°C64 %750 мм4.9 м/с2 %
    14:00Ясно и безоблачно+33°C63 %750 мм5.3 м/с2 %
    17:00Ясно и безоблачно+32°C66 %749 мм5.4 м/с2 %
    20:00Ясно и безоблачно+28°C82 %749 мм5.0 м/с2 %
    23:00Ясно и безоблачно+26°C80 %749 мм3.9 м/с2 %
  • 25июля
    Четверг
    +23°
    +32°
    Ясно и безоблачно
    ВремяПогодаТемператураВлажностьДавлениеВетер, м/сВероятность осадков
    02:00Ясно и безоблачно+25°C84 %748 мм4.0 м/с2 %
    05:00Ясно и безоблачно+25°C88 %747 мм4.6 м/с2 %
    08:00Ясно и безоблачно+27°C83 %748 мм5.1 м/с2 %
    11:00Ясно и безоблачно+30°C71 %748 мм5.3 м/с2 %
    14:00Ясно и безоблачно+31°C68 %748 мм5.6 м/с2 %
    17:00Ясно и безоблачно+30°C69 %747 мм4.6 м/с2 %
    20:00Ясно и безоблачно+27°C81 %747 мм3.7 м/с2 %
    23:00Ясно и безоблачно+25°C84 %748 мм1.8 м/с2 %
  • 26июля
    Пятница
    +23°
    +32°
    Ясно и безоблачно
    ВремяПогодаТемператураВлажностьДавлениеВетер, м/сВероятность осадков
    02:00Ясно и безоблачно+24°C88 %748 мм1.8 м/с2 %
    05:00Ясно и безоблачно+24°C91 %747 мм1.7 м/с2 %
    08:00Ясно и безоблачно+27°C83 %748 мм1.9 м/с2 %
    11:00Ясно и безоблачно+30°C69 %749 мм2.9 м/с2 %
    14:00Ясно и безоблачно+31°C65 %749 мм4.0 м/с2 %
    17:00Ясно и безоблачно+30°C65 %749 мм3.9 м/с2 %
    20:00Ясно и безоблачно+27°C72 %749 мм3.1 м/с2 %
    23:00Ясно и безоблачно+26°C79 %750 мм1.9 м/с2 %
  • 27июля
    Суббота
    +24°
    +33°
    Ясно и безоблачно
    ВремяПогодаТемператураВлажностьДавлениеВетер, м/сВероятность осадков
    02:00Ясно и безоблачно+25°C86 %750 мм1.5 м/с2 %
    05:00Ясно и безоблачно+24°C89 %750 мм1.6 м/с2 %
    08:00Ясно и безоблачно+27°C84 %751 мм1.7 м/с2 %
    11:00Ясно и безоблачно+31°C68 %752 мм2.6 м/с2 %
    14:00Ясно и безоблачно+32°C69 %752 мм3.2 м/с2 %
    17:00Ясно и безоблачно+32°C70 %752 мм2.9 м/с2 %
    20:00Ясно и безоблачно+29°C73 %752 мм2.7 м/с2 %
    23:00Ясно и безоблачно+27°C75 %753 мм1.8 м/с2 %
  • 28июля
    Воскресенье
    +24°
    +34°
    Ясно и безоблачно
    ВремяПогодаТемператураВлажностьДавлениеВетер, м/сВероятность осадков
    02:00Ясно и безоблачно+26°C79 %753 мм1.7 м/с2 %
    05:00Ясно и безоблачно+25°C86 %752 мм1.9 м/с2 %
    08:00Ясно и безоблачно+28°C78 %754 мм1.7 м/с2 %
    11:00Ясно и безоблачно+32°C59 %754 мм2.7 м/с2 %
    14:00Ясно и безоблачно+33°C60 %754 мм4.1 м/с2 %
    17:00Ясно и безоблачно+33°C58 %753 мм4.1 м/с2 %
    20:00Ясно и безоблачно+29°C67 %753 мм4.2 м/с2 %
    23:00Ясно и безоблачно+26°C68 %753 мм2.6 м/с2 %
Мы используем cookies
Соглашаюсь